createdAt,value
2019-05-11T00:00:27.842Z,1003.73
2019-05-11T00:01:27.817Z,1003.73
2019-05-11T00:02:27.835Z,1003.64
2019-05-11T00:03:27.802Z,1003.69
2019-05-11T00:04:27.781Z,1003.65
2019-05-11T00:05:27.771Z,1003.68
2019-05-11T00:06:27.765Z,1003.62
2019-05-11T00:07:27.806Z,1003.63
2019-05-11T00:08:27.743Z,1003.65
2019-05-11T00:09:27.733Z,1003.60
2019-05-11T00:10:27.714Z,1003.58
2019-05-11T00:11:27.705Z,1003.58
2019-05-11T00:12:27.733Z,1003.60
2019-05-11T00:13:27.685Z,1003.63
2019-05-11T00:14:27.674Z,1003.67
2019-05-11T00:15:27.662Z,1003.67
2019-05-11T00:16:27.646Z,1003.62
2019-05-11T00:17:27.683Z,1003.62
2019-05-11T00:18:27.627Z,1003.58
2019-05-11T00:19:27.620Z,1003.58
2019-05-11T00:20:27.608Z,1003.55
2019-05-11T00:21:27.590Z,1003.55
2019-05-11T00:22:27.612Z,1003.59
2019-05-11T00:23:27.574Z,1003.59
2019-05-11T00:24:29.564Z,1003.66
2019-05-11T00:25:27.549Z,1003.63
2019-05-11T00:26:27.540Z,1003.60
2019-05-11T00:27:27.536Z,1003.61
2019-05-11T00:28:27.567Z,1003.64
2019-05-11T00:29:27.527Z,1003.66
2019-05-11T00:30:27.492Z,1003.67
2019-05-11T00:31:27.498Z,1003.65
2019-05-11T00:32:27.499Z,1003.64
2019-05-11T00:33:27.495Z,1003.63
2019-05-11T00:34:27.453Z,1003.63
2019-05-11T00:35:27.439Z,1003.65
2019-05-11T00:36:27.437Z,1003.62
2019-05-11T00:37:27.417Z,1003.60
2019-05-11T00:38:27.426Z,1003.65
2019-05-11T00:39:27.439Z,1003.59
2019-05-11T00:40:27.388Z,1003.58
2019-05-11T00:41:27.370Z,1003.60
2019-05-11T00:42:27.363Z,1003.57
2019-05-11T00:43:27.374Z,1003.62
2019-05-11T00:44:27.339Z,1003.60
2019-05-11T00:45:27.330Z,1003.56
2019-05-11T00:46:27.316Z,1003.53
2019-05-11T00:47:27.335Z,1003.52
2019-05-11T00:48:27.325Z,1003.50
2019-05-11T00:49:27.281Z,1003.50
2019-05-11T00:50:38.762Z,1003.47
2019-05-11T00:51:28.263Z,1003.47
2019-05-11T00:52:27.250Z,1003.46
2019-05-11T00:53:27.261Z,1003.50
2019-05-11T00:54:27.224Z,1003.50
2019-05-11T00:55:27.223Z,1003.45
2019-05-11T00:56:27.201Z,1003.42
2019-05-11T00:57:27.196Z,1003.42
2019-05-11T00:58:27.206Z,1003.37
2019-05-11T00:59:27.173Z,1003.32
2019-05-11T01:00:27.159Z,1003.32
2019-05-11T01:01:27.147Z,1003.28
2019-05-11T01:02:27.133Z,1003.29
2019-05-11T01:03:27.152Z,1003.32
2019-05-11T01:04:27.125Z,1003.29
2019-05-11T01:05:27.115Z,1003.32
2019-05-11T01:06:27.100Z,1003.31
2019-05-11T01:07:27.077Z,1003.29
2019-05-11T01:08:27.108Z,1003.25
2019-05-11T01:09:27.055Z,1003.22
2019-05-11T01:10:40.998Z,1003.21
2019-05-11T01:11:28.030Z,1003.22
2019-05-11T01:12:27.027Z,1003.21
2019-05-11T01:13:27.012Z,1003.20
2019-05-11T01:14:27.026Z,1003.26
2019-05-11T01:15:26.987Z,1003.20
2019-05-11T01:16:26.990Z,1003.17
2019-05-11T01:17:26.994Z,1003.18
2019-05-11T01:18:26.960Z,1003.21
2019-05-11T01:19:26.973Z,1003.15
2019-05-11T01:20:26.932Z,1003.12
2019-05-11T01:21:26.923Z,1003.11
2019-05-11T01:22:26.973Z,1003.05
2019-05-11T01:23:26.914Z,1003.06
2019-05-11T01:24:26.918Z,1003.03
2019-05-11T01:25:26.877Z,1003.04
2019-05-11T01:26:26.868Z,1003.05
2019-05-11T01:27:26.864Z,1003.07
2019-05-11T01:28:26.844Z,1003.05
2019-05-11T01:29:26.862Z,1003.01
2019-05-11T01:30:26.819Z,1002.93
2019-05-11T01:31:26.826Z,1002.91
2019-05-11T01:32:26.818Z,1002.91
2019-05-11T01:33:26.793Z,1002.90
2019-05-11T01:34:26.804Z,1002.90
2019-05-11T01:35:26.769Z,1002.91
2019-05-11T01:36:26.753Z,1002.96
2019-05-11T01:37:26.744Z,1002.98
2019-05-11T01:38:26.775Z,1002.98
2019-05-11T01:39:26.756Z,1003.00
2019-05-11T01:40:26.708Z,1003.00
2019-05-11T01:41:26.703Z,1002.94
2019-05-11T01:42:26.735Z,1002.95
2019-05-11T01:43:26.676Z,1002.96
2019-05-11T01:44:26.691Z,1002.99
2019-05-11T01:45:26.664Z,1003.03
2019-05-11T01:46:26.655Z,1003.04
2019-05-11T01:47:26.632Z,1003.03
2019-05-11T01:48:26.624Z,1003.07
2019-05-11T01:49:26.637Z,1003.04
2019-05-11T01:50:26.606Z,1003.07
2019-05-11T01:51:26.585Z,1003.01
2019-05-11T01:52:26.585Z,1003.02
2019-05-11T01:53:26.592Z,1002.94
2019-05-11T01:54:26.578Z,1002.91
2019-05-11T01:55:26.542Z,1002.89
2019-05-11T01:56:26.540Z,1002.83
2019-05-11T01:57:26.535Z,1002.80
2019-05-11T01:58:26.509Z,1002.84
2019-05-11T01:59:26.525Z,1002.79
2019-05-11T02:00:26.495Z,1002.79
2019-05-11T02:01:26.479Z,1002.79
2019-05-11T02:02:26.469Z,1002.81
2019-05-11T02:03:26.462Z,1002.78
2019-05-11T02:04:26.471Z,1002.76
2019-05-11T02:05:26.434Z,1002.81
2019-05-11T02:06:26.423Z,1002.85
2019-05-11T02:07:26.406Z,1002.87
2019-05-11T02:08:26.413Z,1002.84
2019-05-11T02:09:26.387Z,1002.89
2019-05-11T02:10:26.408Z,1002.95
2019-05-11T02:11:26.375Z,1002.91
2019-05-11T02:12:26.359Z,1002.89
2019-05-11T02:13:26.341Z,1002.95
2019-05-11T02:14:26.340Z,1002.98
2019-05-11T02:15:26.346Z,1002.96
2019-05-11T02:16:26.308Z,1002.95
2019-05-11T02:17:26.312Z,1002.95
2019-05-11T02:18:26.308Z,1002.92
2019-05-11T02:19:26.279Z,1002.99
2019-05-11T02:20:26.297Z,1002.96
2019-05-11T02:21:26.249Z,1002.91
2019-05-11T02:22:26.256Z,1002.87
2019-05-11T02:23:26.229Z,1002.86
2019-05-11T02:24:26.217Z,1002.86
2019-05-11T02:25:26.259Z,1002.85
2019-05-11T02:26:26.194Z,1002.89
2019-05-11T02:27:26.191Z,1002.88
2019-05-11T02:28:26.176Z,1002.87
2019-05-11T02:29:26.163Z,1002.80
2019-05-11T02:30:26.180Z,1002.79
2019-05-11T02:31:26.154Z,1002.81
2019-05-11T02:32:26.129Z,1002.83
2019-05-11T02:33:26.131Z,1002.81
2019-05-11T02:34:26.113Z,1002.78
2019-05-11T02:35:26.165Z,1002.77
2019-05-11T02:36:26.093Z,1002.76
2019-05-11T02:37:26.079Z,1002.76
2019-05-11T02:38:26.099Z,1002.79
2019-05-11T02:39:26.084Z,1002.74
2019-05-11T02:40:26.072Z,1002.81
2019-05-11T02:41:35.997Z,1002.78
2019-05-11T02:42:27.044Z,1002.76
2019-05-11T02:43:26.026Z,1002.75
2019-05-11T02:44:25.998Z,1002.76
2019-05-11T02:45:26.010Z,1002.75
2019-05-11T02:46:25.990Z,1002.73
2019-05-11T02:47:25.996Z,1002.73
2019-05-11T02:48:25.979Z,1002.78
2019-05-11T02:49:28.120Z,1002.76
2019-05-11T02:50:25.962Z,1002.73
2019-05-11T02:51:25.917Z,1002.78
2019-05-11T02:52:25.907Z,1002.76
2019-05-11T02:53:25.895Z,1002.78
2019-05-11T02:54:25.906Z,1002.79
2019-05-11T02:55:25.897Z,1002.73
2019-05-11T02:56:25.861Z,1002.75
2019-05-11T02:57:25.858Z,1002.70
2019-05-11T02:58:25.853Z,1002.66
2019-05-11T02:59:29.666Z,1002.67
2019-05-11T03:00:25.831Z,1002.71
2019-05-11T03:01:25.831Z,1002.68
2019-05-11T03:02:25.795Z,1002.68
2019-05-11T03:03:25.846Z,1002.67
2019-05-11T03:04:25.771Z,1002.67
2019-05-11T03:05:25.764Z,1002.67
2019-05-11T03:06:25.796Z,1002.68
2019-05-11T03:07:25.739Z,1002.60
2019-05-11T03:08:25.731Z,1002.60
2019-05-11T03:09:25.727Z,1002.62
2019-05-11T03:10:25.705Z,1002.61
2019-05-11T03:11:25.732Z,1002.57
2019-05-11T03:12:25.705Z,1002.57
2019-05-11T03:13:25.677Z,1002.55
2019-05-11T03:14:25.686Z,1002.48
2019-05-11T03:15:25.664Z,1002.45
2019-05-11T03:16:25.676Z,1002.45
2019-05-11T03:17:25.631Z,1002.41
2019-05-11T03:18:25.627Z,1002.43
2019-05-11T03:19:25.607Z,1002.43
2019-05-11T03:20:25.597Z,1002.47
2019-05-11T03:21:25.613Z,1002.53
2019-05-11T03:22:25.576Z,1002.54
2019-05-11T03:23:25.563Z,1002.59
2019-05-11T03:24:25.559Z,1002.55
2019-05-11T03:25:25.577Z,1002.63
2019-05-11T03:26:25.552Z,1002.65
2019-05-11T03:27:25.522Z,1002.59
2019-05-11T03:28:25.513Z,1002.57
2019-05-11T03:29:25.514Z,1002.55
2019-05-11T03:30:25.517Z,1002.52
2019-05-11T03:31:25.527Z,1002.48
2019-05-11T03:32:25.475Z,1002.51
2019-05-11T03:33:25.549Z,1002.54
2019-05-11T03:34:25.445Z,1002.47
2019-05-11T03:35:25.470Z,1002.49
2019-05-11T03:36:25.470Z,1002.48
2019-05-11T03:37:25.416Z,1002.44
2019-05-11T03:38:25.424Z,1002.49
2019-05-11T03:39:25.383Z,1002.48
2019-05-11T03:40:25.381Z,1002.44
2019-05-11T03:41:25.383Z,1002.44
2019-05-11T03:42:25.346Z,1002.40
2019-05-11T03:43:25.363Z,1002.40
2019-05-11T03:44:25.339Z,1002.39
2019-05-11T03:45:25.318Z,1002.40
2019-05-11T03:46:25.331Z,1002.41
2019-05-11T03:47:25.344Z,1002.52
2019-05-11T03:48:25.289Z,1002.49
2019-05-11T03:49:25.320Z,1002.53
2019-05-11T03:50:25.266Z,1002.48
2019-05-11T03:51:25.257Z,1002.48
2019-05-11T03:52:25.260Z,1002.48
2019-05-11T03:53:25.224Z,1002.42
2019-05-11T03:54:25.221Z,1002.46
2019-05-11T03:55:25.297Z,1002.40
2019-05-11T03:56:25.208Z,1002.37
2019-05-11T03:57:25.210Z,1002.41
2019-05-11T03:58:26.547Z,1002.42
2019-05-11T03:59:25.160Z,1002.38
2019-05-11T04:00:25.156Z,1002.38
2019-05-11T04:01:25.138Z,1002.41
2019-05-11T04:02:25.160Z,1002.31
2019-05-11T04:03:25.140Z,1002.40
2019-05-11T04:04:25.117Z,1002.35
2019-05-11T04:05:25.094Z,1002.33
2019-05-11T04:06:25.095Z,1002.25
2019-05-11T04:07:25.114Z,1002.24
2019-05-11T04:08:25.068Z,1002.32
2019-05-11T04:09:25.055Z,1002.29
2019-05-11T04:10:25.736Z,1002.35
2019-05-11T04:11:25.030Z,1002.27
2019-05-11T04:12:34.689Z,1002.30
2019-05-11T04:13:26.012Z,1002.34
2019-05-11T04:14:24.990Z,1002.34
2019-05-11T04:15:24.990Z,1002.38
2019-05-11T04:16:24.971Z,1002.40
2019-05-11T04:17:24.995Z,1002.35
2019-05-11T04:18:24.972Z,1002.38
2019-05-11T04:19:24.956Z,1002.33
2019-05-11T04:20:24.927Z,1002.36
2019-05-11T04:21:24.920Z,1002.35
2019-05-11T04:22:24.928Z,1002.35
2019-05-11T04:23:24.897Z,1002.36
2019-05-11T04:24:24.881Z,1002.37
2019-05-11T04:25:24.883Z,1002.33
2019-05-11T04:26:24.856Z,1002.32
2019-05-11T04:27:24.875Z,1002.32
2019-05-11T04:28:24.835Z,1002.35
2019-05-11T04:29:24.826Z,1002.29
2019-05-11T04:30:24.832Z,1002.28
2019-05-11T04:31:24.815Z,1002.26
2019-05-11T04:32:24.820Z,1002.24
2019-05-11T04:33:24.780Z,1002.20
2019-05-11T04:34:24.779Z,1002.21
2019-05-11T04:35:24.757Z,1002.19
2019-05-11T04:36:24.749Z,1002.22
2019-05-11T04:37:24.767Z,1002.21
2019-05-11T04:38:24.727Z,1002.20
2019-05-11T04:39:24.718Z,1002.20
2019-05-11T04:40:24.737Z,1002.15
2019-05-11T04:41:24.691Z,1002.21
2019-05-11T04:42:24.686Z,1002.18
2019-05-11T04:43:24.701Z,1002.22
2019-05-11T04:44:24.656Z,1002.25
2019-05-11T04:45:24.643Z,1002.26
2019-05-11T04:46:24.635Z,1002.30
2019-05-11T04:47:24.660Z,1002.29
2019-05-11T04:48:24.612Z,1002.31
2019-05-11T04:49:24.609Z,1002.34
2019-05-11T04:50:24.590Z,1002.37
2019-05-11T04:51:24.584Z,1002.39
2019-05-11T04:52:24.566Z,1002.42
2019-05-11T04:53:24.597Z,1002.44
2019-05-11T04:54:24.554Z,1002.36
2019-05-11T04:55:24.539Z,1002.38
2019-05-11T04:56:24.549Z,1002.36
2019-05-11T04:57:24.518Z,1002.38
2019-05-11T04:58:24.525Z,1002.38
2019-05-11T04:59:24.488Z,1002.34
2019-05-11T05:00:24.480Z,1002.37
2019-05-11T05:01:24.467Z,1002.38
2019-05-11T05:02:27.163Z,1002.46
2019-05-11T05:03:39.668Z,1002.45
2019-05-11T05:04:25.428Z,1002.40
2019-05-11T05:05:24.423Z,1002.44
2019-05-11T05:06:24.810Z,1002.42
2019-05-11T05:07:24.401Z,1002.41
2019-05-11T05:08:26.698Z,1002.46
2019-05-11T05:09:24.436Z,1002.44
2019-05-11T05:10:24.363Z,1002.45
2019-05-11T05:11:24.354Z,1002.43
2019-05-11T05:12:24.371Z,1002.44
2019-05-11T05:13:29.622Z,1002.43
2019-05-11T05:14:25.318Z,1002.44
2019-05-11T05:15:24.315Z,1002.42
2019-05-11T05:16:24.309Z,1002.43
2019-05-11T05:17:24.290Z,1002.47
2019-05-11T05:18:24.303Z,1002.50
2019-05-11T05:19:24.262Z,1002.48
2019-05-11T05:20:24.253Z,1002.53
2019-05-11T05:21:24.242Z,1002.53
2019-05-11T05:22:27.811Z,1002.56
2019-05-11T05:23:24.256Z,1002.59
2019-05-11T05:24:24.211Z,1002.55
2019-05-11T05:25:24.218Z,1002.57
2019-05-11T05:26:24.191Z,1002.54
2019-05-11T05:27:24.176Z,1002.54
2019-05-11T05:28:24.194Z,1002.53
2019-05-11T05:29:24.156Z,1002.55
2019-05-11T05:30:24.140Z,1002.60
2019-05-11T05:31:24.163Z,1002.59
2019-05-11T05:32:24.118Z,1002.57
2019-05-11T05:33:24.132Z,1002.61
2019-05-11T05:34:24.101Z,1002.61
2019-05-11T05:35:24.093Z,1002.61
2019-05-11T05:36:24.073Z,1002.59
2019-05-11T05:37:24.067Z,1002.64
2019-05-11T05:38:24.082Z,1002.63
2019-05-11T05:39:24.041Z,1002.62
2019-05-11T05:40:24.033Z,1002.62
2019-05-11T05:41:24.032Z,1002.63
2019-05-11T05:42:24.008Z,1002.62
2019-05-11T05:43:27.170Z,1002.61
2019-05-11T05:44:27.463Z,1002.63
2019-05-11T05:45:23.982Z,1002.67
2019-05-11T05:46:23.972Z,1002.67
2019-05-11T05:47:23.958Z,1002.67
2019-05-11T05:48:23.970Z,1002.65
2019-05-11T05:49:23.956Z,1002.64
2019-05-11T05:50:23.917Z,1002.72
2019-05-11T05:51:23.907Z,1002.71
2019-05-11T05:52:23.920Z,1002.71
2019-05-11T05:53:23.914Z,1002.71
2019-05-11T05:54:23.899Z,1002.71
2019-05-11T05:55:23.860Z,1002.72
2019-05-11T05:56:23.851Z,1002.72
2019-05-11T05:57:23.840Z,1002.70
2019-05-11T05:58:23.852Z,1002.71
2019-05-11T05:59:23.843Z,1002.75
2019-05-11T06:00:23.804Z,1002.73
2019-05-11T06:01:23.797Z,1002.72
2019-05-11T06:02:23.783Z,1002.74
2019-05-11T06:03:23.774Z,1002.76
2019-05-11T06:04:23.801Z,1002.73
2019-05-11T06:05:23.764Z,1002.71
2019-05-11T06:06:23.742Z,1002.70
2019-05-11T06:07:23.731Z,1002.70
2019-05-11T06:08:23.738Z,1002.69
2019-05-11T06:09:23.757Z,1002.68
2019-05-11T06:10:23.704Z,1002.68
2019-05-11T06:11:23.683Z,1002.61
2019-05-11T06:12:23.677Z,1002.60
2019-05-11T06:13:23.661Z,1002.64
2019-05-11T06:14:23.683Z,1002.62
2019-05-11T06:15:23.643Z,1002.60
2019-05-11T06:16:23.631Z,1002.58
2019-05-11T06:17:23.629Z,1002.53
2019-05-11T06:18:23.608Z,1002.57
2019-05-11T06:19:23.627Z,1002.54
2019-05-11T06:20:23.587Z,1002.52
2019-05-11T06:21:23.572Z,1002.50
2019-05-11T06:22:23.565Z,1002.57
2019-05-11T06:23:23.551Z,1002.53
2019-05-11T06:24:23.576Z,1002.56
2019-05-11T06:25:23.547Z,1002.57
2019-05-11T06:26:23.515Z,1002.56
2019-05-11T06:27:23.504Z,1002.56
2019-05-11T06:28:23.497Z,1002.59
2019-05-11T06:29:23.540Z,1002.60
2019-05-11T06:30:23.482Z,1002.64
2019-05-11T06:31:23.459Z,1002.60
2019-05-11T06:32:23.451Z,1002.66
2019-05-11T06:33:23.436Z,1002.63
2019-05-11T06:34:23.453Z,1002.63
2019-05-11T06:35:23.420Z,1002.69
2019-05-11T06:36:23.408Z,1002.66
2019-05-11T06:37:23.401Z,1002.67
2019-05-11T06:38:23.389Z,1002.68
2019-05-11T06:39:23.371Z,1002.70
2019-05-11T06:40:23.385Z,1002.71
2019-05-11T06:41:23.354Z,1002.72
2019-05-11T06:42:23.343Z,1002.75
2019-05-11T06:43:23.341Z,1002.78
2019-05-11T06:44:23.314Z,1002.73
2019-05-11T06:45:23.331Z,1002.79
2019-05-11T06:46:23.298Z,1002.79
2019-05-11T06:47:23.280Z,1002.83
2019-05-11T06:48:23.280Z,1002.79
2019-05-11T06:49:23.257Z,1002.82
2019-05-11T06:50:23.272Z,1002.87
2019-05-11T06:51:23.237Z,1002.83
2019-05-11T06:52:23.225Z,1002.81
2019-05-11T06:53:23.213Z,1002.87
2019-05-11T06:54:23.205Z,1002.81
2019-05-11T06:55:23.257Z,1002.82
2019-05-11T06:56:23.184Z,1002.84
2019-05-11T06:57:23.180Z,1002.81
2019-05-11T06:58:23.178Z,1002.81
2019-05-11T06:59:23.147Z,1002.82
2019-05-11T07:00:23.253Z,1002.83
2019-05-11T07:01:23.134Z,1002.84
2019-05-11T07:02:23.112Z,1002.84
2019-05-11T07:03:23.103Z,1002.86
2019-05-11T07:04:23.093Z,1002.89
2019-05-11T07:05:23.164Z,1002.87
2019-05-11T07:06:26.201Z,1002.85
2019-05-11T07:07:24.074Z,1002.86
2019-05-11T07:08:23.069Z,1002.91
2019-05-11T07:09:23.271Z,1002.90
2019-05-11T07:10:23.050Z,1002.89
2019-05-11T07:11:23.013Z,1002.91
2019-05-11T07:12:23.002Z,1002.86
2019-05-11T07:13:23.016Z,1002.91
2019-05-11T07:14:22.984Z,1002.89
2019-05-11T07:15:22.993Z,1002.91
2019-05-11T07:16:23.039Z,1002.91
2019-05-11T07:17:22.948Z,1002.89
2019-05-11T07:18:22.935Z,1002.90
2019-05-11T07:19:22.926Z,1002.91
2019-05-11T07:20:23.034Z,1002.90
2019-05-11T07:21:22.903Z,1002.93
2019-05-11T07:22:22.898Z,1002.94
2019-05-11T07:23:23.026Z,1002.94
2019-05-11T07:24:22.868Z,1002.91
2019-05-11T07:25:22.857Z,1002.94
2019-05-11T07:26:22.876Z,1002.91
2019-05-11T07:27:22.879Z,1002.91
2019-05-11T07:28:22.823Z,1002.99
2019-05-11T07:29:22.811Z,1002.99
2019-05-11T07:30:22.801Z,1003.02
2019-05-11T07:31:22.831Z,1002.97
2019-05-11T07:32:25.955Z,1002.98
2019-05-11T07:33:22.766Z,1003.00
2019-05-11T07:34:22.757Z,1002.99
2019-05-11T07:35:22.747Z,1002.99
2019-05-11T07:36:22.761Z,1003.00
2019-05-11T07:37:24.320Z,1002.98
2019-05-11T07:38:22.720Z,1002.99
2019-05-11T07:39:22.699Z,1003.00
2019-05-11T07:40:22.688Z,1003.01
2019-05-11T07:41:22.702Z,1003.00
2019-05-11T07:42:22.674Z,1003.02
2019-05-11T07:43:22.681Z,1003.03
2019-05-11T07:44:34.959Z,1003.04
2019-05-11T07:45:23.635Z,1003.09
2019-05-11T07:46:22.646Z,1003.09
2019-05-11T07:47:22.644Z,1003.14
2019-05-11T07:48:22.606Z,1003.14
2019-05-11T07:49:23.528Z,1003.16
2019-05-11T07:50:22.585Z,1003.18
2019-05-11T07:51:22.592Z,1003.18
2019-05-11T07:52:22.580Z,1003.24
2019-05-11T07:53:22.549Z,1003.26
2019-05-11T07:54:22.532Z,1003.26
2019-05-11T07:55:22.526Z,1003.29
2019-05-11T07:56:22.535Z,1003.32
2019-05-11T07:57:22.571Z,1003.29
2019-05-11T07:58:22.493Z,1003.31
2019-05-11T07:59:22.485Z,1003.32
2019-05-11T08:00:22.473Z,1003.34
2019-05-11T08:01:22.469Z,1003.40
2019-05-11T08:02:22.471Z,1003.40
2019-05-11T08:03:22.433Z,1003.42
2019-05-11T08:04:22.424Z,1003.41
2019-05-11T08:05:22.409Z,1003.48
2019-05-11T08:06:22.405Z,1003.46
2019-05-11T08:07:22.439Z,1003.43
2019-05-11T08:08:25.061Z,1003.43
2019-05-11T08:09:22.365Z,1003.45
2019-05-11T08:10:22.465Z,1003.49
2019-05-11T08:11:22.347Z,1003.47
2019-05-11T08:12:22.371Z,1003.54
2019-05-11T08:13:22.320Z,1003.50
2019-05-11T08:14:22.318Z,1003.53
2019-05-11T08:15:22.357Z,1003.54
2019-05-11T08:16:22.291Z,1003.56
2019-05-11T08:17:22.301Z,1003.56
2019-05-11T08:18:22.304Z,1003.61
2019-05-11T08:19:22.309Z,1003.63
2019-05-11T08:20:22.242Z,1003.64
2019-05-11T08:21:22.229Z,1003.69
2019-05-11T08:22:23.109Z,1003.68
2019-05-11T08:23:22.213Z,1003.72
2019-05-11T08:24:22.203Z,1003.75
2019-05-11T08:25:22.186Z,1003.77
2019-05-11T08:26:22.193Z,1003.73
2019-05-11T08:27:22.187Z,1003.75
2019-05-11T08:28:22.153Z,1003.80
2019-05-11T08:29:22.144Z,1003.73
2019-05-11T08:30:22.139Z,1003.77
2019-05-11T08:31:22.124Z,1003.78
2019-05-11T08:32:22.159Z,1003.79
2019-05-11T08:33:22.096Z,1003.76
2019-05-11T08:34:22.111Z,1003.79
2019-05-11T08:35:22.083Z,1003.79
2019-05-11T08:36:22.063Z,1003.80
2019-05-11T08:37:22.078Z,1003.83
2019-05-11T08:38:22.048Z,1003.85
2019-05-11T08:39:22.033Z,1003.84
2019-05-11T08:40:22.020Z,1003.84
2019-05-11T08:41:22.007Z,1003.88
2019-05-11T08:42:22.005Z,1003.88
2019-05-11T08:43:22.049Z,1003.92
2019-05-11T08:44:21.973Z,1003.91
2019-05-11T08:45:24.675Z,1003.93
2019-05-11T08:46:21.953Z,1003.94
2019-05-11T08:47:21.966Z,1003.94
2019-05-11T08:48:21.934Z,1003.91
2019-05-11T08:49:21.924Z,1003.90
2019-05-11T08:50:21.912Z,1003.93
2019-05-11T08:51:21.941Z,1003.95
2019-05-11T08:52:21.886Z,1003.96
2019-05-11T08:53:21.902Z,1003.96
2019-05-11T08:54:21.867Z,1003.96
2019-05-11T08:55:21.854Z,1004.00
2019-05-11T08:56:21.846Z,1003.98
2019-05-11T08:57:21.831Z,1004.01
2019-05-11T08:58:21.845Z,1004.05
2019-05-11T08:59:21.821Z,1004.04
2019-05-11T09:00:21.805Z,1004.07
2019-05-11T09:01:21.782Z,1004.10
2019-05-11T09:02:21.782Z,1004.12
2019-05-11T09:03:21.945Z,1004.08
2019-05-11T09:04:21.753Z,1004.16
2019-05-11T09:05:21.742Z,1004.15
2019-05-11T09:06:21.730Z,1004.22
2019-05-11T09:07:21.730Z,1004.21
2019-05-11T09:08:21.746Z,1004.21
2019-05-11T09:09:21.701Z,1004.25
2019-05-11T09:10:21.695Z,1004.23
2019-05-11T09:11:21.674Z,1004.26
2019-05-11T09:12:21.664Z,1004.27
2019-05-11T09:13:21.688Z,1004.32
2019-05-11T09:14:21.649Z,1004.29
2019-05-11T09:15:33.710Z,1004.33
2019-05-11T09:16:22.614Z,1004.34
2019-05-11T09:17:21.624Z,1004.37
2019-05-11T09:18:21.622Z,1004.39
2019-05-11T09:19:21.583Z,1004.43
2019-05-11T09:20:21.575Z,1004.43
2019-05-11T09:21:21.563Z,1004.45
2019-05-11T09:22:21.571Z,1004.48
2019-05-11T09:23:33.601Z,1004.48
2019-05-11T09:24:22.532Z,1004.48
2019-05-11T09:25:21.520Z,1004.50
2019-05-11T09:26:21.507Z,1004.54
2019-05-11T09:27:21.513Z,1004.55
2019-05-11T09:28:21.520Z,1004.60
2019-05-11T09:29:21.472Z,1004.66
2019-05-11T09:30:21.473Z,1004.65
2019-05-11T09:31:21.457Z,1004.61
2019-05-11T09:32:21.442Z,1004.64
2019-05-11T09:33:21.451Z,1004.68
2019-05-11T09:34:21.417Z,1004.69
2019-05-11T09:35:21.409Z,1004.71
2019-05-11T09:36:21.455Z,1004.77
2019-05-11T09:37:21.381Z,1004.80
2019-05-11T09:38:21.395Z,1004.83
2019-05-11T09:39:21.359Z,1004.85
2019-05-11T09:40:21.385Z,1004.83
2019-05-11T09:41:21.338Z,1004.90
2019-05-11T09:42:21.328Z,1004.91
2019-05-11T09:43:21.321Z,1004.92
2019-05-11T09:44:21.342Z,1005.00
2019-05-11T09:45:21.298Z,1005.01
2019-05-11T09:46:21.281Z,1005.00
2019-05-11T09:47:21.333Z,1005.05
2019-05-11T09:48:21.261Z,1005.07
2019-05-11T09:49:21.275Z,1005.05
2019-05-11T09:50:21.257Z,1005.13
2019-05-11T09:51:21.230Z,1005.13
2019-05-11T09:52:21.218Z,1005.16
2019-05-11T09:53:21.205Z,1005.18
2019-05-11T09:54:21.216Z,1005.16
2019-05-11T09:55:21.179Z,1005.20
2019-05-11T09:56:21.197Z,1005.17
2019-05-11T09:57:21.161Z,1005.22
2019-05-11T09:58:21.150Z,1005.23
2019-05-11T09:59:21.167Z,1005.27
2019-05-11T10:00:21.133Z,1005.25
2019-05-11T10:01:21.120Z,1005.29
2019-05-11T10:02:21.296Z,1005.25
2019-05-11T10:03:21.097Z,1005.32
2019-05-11T10:04:21.109Z,1005.31
2019-05-11T10:05:21.069Z,1005.35
2019-05-11T10:06:21.065Z,1005.36
2019-05-11T10:07:21.063Z,1005.35
2019-05-11T10:08:21.037Z,1005.40
2019-05-11T10:09:21.057Z,1005.43
2019-05-11T10:10:21.022Z,1005.41
2019-05-11T10:11:21.004Z,1005.43
2019-05-11T10:12:20.992Z,1005.43
2019-05-11T10:13:20.987Z,1005.52
2019-05-11T10:14:20.997Z,1005.50
2019-05-11T10:15:20.963Z,1005.48
2019-05-11T10:16:20.950Z,1005.50
2019-05-11T10:17:20.939Z,1005.47
2019-05-11T10:18:24.085Z,1005.55
2019-05-11T10:19:20.938Z,1005.56
2019-05-11T10:20:20.908Z,1005.56
2019-05-11T10:21:20.889Z,1005.61
2019-05-11T10:22:20.892Z,1005.59
2019-05-11T10:23:20.873Z,1005.65
2019-05-11T10:24:20.883Z,1005.70
2019-05-11T10:25:20.851Z,1005.59
2019-05-11T10:26:20.839Z,1005.66
2019-05-11T10:27:20.822Z,1005.72
2019-05-11T10:28:20.833Z,1005.73
2019-05-11T10:29:20.803Z,1005.70
2019-05-11T10:30:20.825Z,1005.77
2019-05-11T10:31:20.776Z,1005.74
2019-05-11T10:32:20.766Z,1005.81
2019-05-11T10:33:20.755Z,1005.75
2019-05-11T10:34:20.745Z,1005.80
2019-05-11T10:35:20.760Z,1005.79
2019-05-11T10:36:20.726Z,1005.81
2019-05-11T10:37:20.713Z,1005.81
2019-05-11T10:38:20.711Z,1005.83
2019-05-11T10:39:20.688Z,1005.84
2019-05-11T10:40:20.708Z,1005.87
2019-05-11T10:41:20.669Z,1005.92
2019-05-11T10:42:20.701Z,1005.89
2019-05-11T10:43:20.652Z,1005.91
2019-05-11T10:44:20.631Z,1005.90
2019-05-11T10:45:20.663Z,1005.93
2019-05-11T10:46:23.491Z,1005.97
2019-05-11T10:47:20.656Z,1005.96
2019-05-11T10:48:20.587Z,1005.93
2019-05-11T10:49:20.578Z,1005.98
2019-05-11T10:50:20.596Z,1005.93
2019-05-11T10:51:20.555Z,1005.99
2019-05-11T10:52:20.550Z,1005.96
2019-05-11T10:53:20.532Z,1005.97
2019-05-11T10:54:20.520Z,1006.01
2019-05-11T10:55:20.536Z,1006.00
2019-05-11T10:56:20.500Z,1005.96
2019-05-11T10:57:20.529Z,1005.95
2019-05-11T10:58:20.481Z,1005.98
2019-05-11T10:59:20.474Z,1006.01
2019-05-11T11:00:20.487Z,1006.02
2019-05-11T11:01:20.442Z,1006.10
2019-05-11T11:02:20.431Z,1006.06
2019-05-11T11:03:20.423Z,1006.11
2019-05-11T11:04:20.407Z,1006.08
2019-05-11T11:05:20.426Z,1006.10
2019-05-11T11:06:20.386Z,1006.08
2019-05-11T11:07:20.392Z,1006.08
2019-05-11T11:08:20.365Z,1006.11
2019-05-11T11:09:20.364Z,1006.09
2019-05-11T11:10:20.352Z,1006.12
2019-05-11T11:11:20.355Z,1006.17
2019-05-11T11:12:20.321Z,1006.19
2019-05-11T11:13:20.308Z,1006.16
2019-05-11T11:14:20.297Z,1006.18
2019-05-11T11:15:20.310Z,1006.18
2019-05-11T11:16:35.813Z,1006.24
2019-05-11T11:17:21.264Z,1006.26
2019-05-11T11:18:20.264Z,1006.27
2019-05-11T11:19:20.249Z,1006.29
2019-05-11T11:20:20.241Z,1006.26
2019-05-11T11:21:22.998Z,1006.36
2019-05-11T11:22:35.958Z,1006.37
2019-05-11T11:23:21.202Z,1006.31
2019-05-11T11:24:20.187Z,1006.32
2019-05-11T11:25:20.175Z,1006.35
2019-05-11T11:26:20.232Z,1006.32
2019-05-11T11:27:20.152Z,1006.39
2019-05-11T11:28:20.144Z,1006.35
2019-05-11T11:29:20.158Z,1006.36
2019-05-11T11:30:20.120Z,1006.36
2019-05-11T11:31:20.157Z,1006.34
2019-05-11T11:32:20.097Z,1006.37
2019-05-11T11:33:20.086Z,1006.32
2019-05-11T11:34:20.100Z,1006.32
2019-05-11T11:35:20.062Z,1006.31
2019-05-11T11:36:20.075Z,1006.31
2019-05-11T11:37:20.046Z,1006.34
2019-05-11T11:38:20.073Z,1006.36
2019-05-11T11:39:20.046Z,1006.35
2019-05-11T11:40:20.025Z,1006.32
2019-05-11T11:41:20.021Z,1006.36
2019-05-11T11:42:20.007Z,1006.32
2019-05-11T11:43:19.998Z,1006.40
2019-05-11T11:44:19.963Z,1006.40
2019-05-11T11:45:19.956Z,1006.34
2019-05-11T11:46:19.983Z,1006.41
2019-05-11T11:47:21.737Z,1006.42
2019-05-11T11:48:19.919Z,1006.41
2019-05-11T11:49:19.906Z,1006.47
2019-05-11T11:50:19.897Z,1006.41
2019-05-11T11:51:19.915Z,1006.51
2019-05-11T11:52:19.872Z,1006.40
2019-05-11T11:53:19.871Z,1006.40
2019-05-11T11:54:19.852Z,1006.46
2019-05-11T11:55:19.851Z,1006.43
2019-05-11T11:56:19.863Z,1006.44
2019-05-11T11:57:19.818Z,1006.52
2019-05-11T11:58:23.788Z,1006.47
2019-05-11T11:59:19.794Z,1006.50
2019-05-11T12:00:19.795Z,1006.52
2019-05-11T12:01:19.776Z,1006.60
2019-05-11T12:02:19.797Z,1006.51
2019-05-11T12:03:19.759Z,1006.56
2019-05-11T12:04:19.793Z,1006.59
2019-05-11T12:05:19.731Z,1006.57